Johnny James — WYT8450 — position and weather

sailwx.info

Track history (hours):
 
Tides and Currents Weather Stations Pressure Air Temp Water Temp Dewpoint Dewpoint Depression Visibility Wind Speed Wind Dir Waves Ship Positions

Johnny James

Owner: CALLAIS & SONS INC, CUT OFF, LA. More information available from US FCC via Universal Licensing System and Coast Guard Vessel Documentation Center.

Last reported at 2015-Mar-20 20:29 UTC. Time now 2015-Mar-29 03:14 UTC.
Position N 29°32' W 094°54'.
Warning: this ship's position is 8 days out of date.

Length 20 m.

Type: Towing. MMSI: 367005220.

Date/timePositionNaut miles runAvg speedWind from/ knotsBaromVisibWave heightAir tempDewpointWater temp
2015-Mar-20 20:29N 29°32' W 094°54'5 4.9
2015-Mar-20 19:33N 29°36' W 094°57'6 5.6
2015-Mar-20 18:33N 29°41' W 094°59'4 4.5
2015-Mar-20 17:33N 29°44' W 095°03'3 3.5
2015-Mar-20 16:34N 29°47' W 095°04'0 0.0
2015-Mar-20 15:34N 29°47' W 095°04'0 0.0
2015-Mar-20 14:33N 29°47' W 095°04'0 0.0
2015-Mar-20 13:34N 29°47' W 095°04'0 0.0
2015-Mar-20 12:34N 29°47' W 095°04'0 0.0
2015-Mar-20 11:33N 29°47' W 095°04'0 0.0
2015-Mar-20 10:34N 29°47' W 095°04'0 0.0
2015-Mar-20 09:33N 29°47' W 095°04'0 0.0
2015-Mar-20 08:33N 29°47' W 095°04'0 0.0
2015-Mar-20 07:33N 29°47' W 095°04'0 0.0
2015-Mar-20 06:32N 29°47' W 095°04'0 0.0
2015-Mar-20 05:34N 29°47' W 095°04'0 0.0
2015-Mar-20 04:33N 29°47' W 095°04'0 0.0
2015-Mar-20 03:33N 29°47' W 095°04'0 0.0
2015-Mar-20 02:33N 29°47' W 095°04'0 0.1
2015-Mar-20 01:20N 29°47' W 095°04'0 0.0
2015-Mar-20 00:28N 29°47' W 095°04'0 0.0
2015-Mar-19 23:33N 29°47' W 095°04'2 1.4
2015-Mar-19 22:28N 29°46' W 095°05'2 2.7
2015-Mar-19 21:34N 29°44' W 095°03'0 0.0
2015-Mar-19 20:23N 29°44' W 095°03'0 0.0
2015-Mar-19 19:31N 29°44' W 095°03'0 0.0
2015-Mar-19 18:32N 29°44' W 095°03'0 0.0
2015-Mar-19 17:32N 29°44' W 095°03'0 0.0
2015-Mar-19 16:32N 29°44' W 095°03'0 0.0
2015-Mar-19 15:11N 29°44' W 095°03'0 0.0
2015-Mar-19 14:33N 29°44' W 095°03'0 0.0
2015-Mar-19 13:29N 29°44' W 095°03'0 0.0
2015-Mar-19 12:31N 29°44' W 095°03'0 0.0
2015-Mar-19 11:32N 29°44' W 095°03'0 0.0
2015-Mar-19 10:29N 29°44' W 095°03'0 0.0
2015-Mar-19 09:21N 29°44' W 095°03'0 0.0
2015-Mar-19 08:25N 29°44' W 095°03'0 0.0
2015-Mar-19 05:10N 29°44' W 095°03'0 0.0
2015-Mar-19 04:30N 29°44' W 095°03'0 0.0
2015-Mar-19 02:33N 29°44' W 095°03'0 0.0
2015-Mar-19 01:14N 29°44' W 095°03'0 0.1
2015-Mar-19 00:19N 29°44' W 095°03'0 0.0
2015-Mar-18 23:21N 29°44' W 095°03'0 0.0
2015-Mar-18 22:20N 29°44' W 095°03'0 0.0
2015-Mar-18 21:31N 29°44' W 095°03'0 0.0
2015-Mar-18 19:22N 29°44' W 095°03'0 0.0
2015-Mar-18 18:13N 29°44' W 095°03'0 0.0
2015-Mar-18 17:29N 29°44' W 095°03'0 0.0
2015-Mar-18 16:31N 29°44' W 095°03'0 0.0
2015-Mar-18 15:31N 29°44' W 095°03'0 0.0
2015-Mar-18 14:30N 29°44' W 095°03'0 0.0
2015-Mar-18 13:33N 29°44' W 095°03'0 0.0
2015-Mar-18 12:30N 29°44' W 095°03'0 0.0
2015-Mar-18 01:14N 29°44' W 095°03'0 0.0
2015-Mar-17 22:20N 29°44' W 095°03'0 0.4
2015-Mar-17 21:33N 29°44' W 095°03'2 2.4
2015-Mar-17 20:30N 29°46' W 095°05'0 0.4
2015-Mar-17 19:32N 29°47' W 095°05'0 0.0
2015-Mar-17 18:27N 29°47' W 095°05'0 0.0
2015-Mar-17 17:33N 29°47' W 095°05'0 0.0
2015-Mar-17 16:27N 29°47' W 095°05'0 0.5
2015-Mar-17 15:33N 29°46' W 095°05'4 4.0
2015-Mar-17 14:33N 29°44' W 095°09'4 3.9
2015-Mar-17 13:34N 29°43' W 095°13'1 0.1
2015-Mar-16 21:05N 29°43' W 095°14'0 0.4
2015-Mar-16 20:34N 29°43' W 095°14'0 0.0
2015-Mar-16 19:34N 29°43' W 095°14'0 0.0
2015-Mar-16 18:34N 29°43' W 095°14'0 0.0
2015-Mar-16 17:33N 29°43' W 095°14'0 0.0
2015-Mar-16 16:34N 29°43' W 095°14'4 3.9
2015-Mar-16 15:34N 29°45' W 095°10'4 3.9
2015-Mar-16 14:34N 29°45' W 095°06'1 1.4
2015-Mar-16 13:33N 29°46' W 095°07'1 0.1
2015-Mar-15 19:33N 29°45' W 095°06'1 0.3
2015-Mar-15 17:18N 29°45' W 095°06'0 0.0
2015-Mar-15 16:33N 29°45' W 095°06'0 0.0
2015-Mar-15 14:34N 29°45' W 095°06'0 0.0
2015-Mar-15 13:33N 29°45' W 095°06'0 0.0
2015-Mar-15 12:33N 29°45' W 095°06'0 0.0
2015-Mar-15 11:34N 29°45' W 095°06'0 0.0
2015-Mar-15 10:34N 29°45' W 095°06'0 0.0
2015-Mar-15 09:33N 29°45' W 095°06'0 0.0
2015-Mar-15 08:33N 29°45' W 095°06'0 0.0
2015-Mar-15 07:33N 29°45' W 095°06'0 0.0
2015-Mar-15 06:34N 29°45' W 095°06'0 0.0
2015-Mar-15 05:33N 29°45' W 095°06'0 0.0
2015-Mar-15 04:34N 29°45' W 095°06'0 0.0
2015-Mar-15 03:33N 29°45' W 095°06'0 0.0
2015-Mar-15 02:34N 29°45' W 095°06'0 0.0
2015-Mar-15 01:33N 29°45' W 095°06'0 0.0
2015-Mar-15 00:33N 29°45' W 095°06'0 0.0
2015-Mar-14 23:33N 29°45' W 095°06'0 0.0
2015-Mar-14 22:33N 29°45' W 095°06'0 0.0
2015-Mar-14 21:33N 29°45' W 095°06'0 0.0
2015-Mar-14 20:33N 29°45' W 095°06'0 0.0
2015-Mar-14 19:33N 29°45' W 095°06'0 0.0
2015-Mar-14 18:33N 29°45' W 095°06'0 0.0
2015-Mar-14 17:33N 29°45' W 095°06'0 0.0
2015-Mar-14 16:33N 29°45' W 095°06'0 0.0
2015-Mar-14 15:32N 29°45' W 095°06'0 0.0
2015-Mar-14 14:33N 29°45' W 095°06'0 0.0
2015-Mar-14 13:33N 29°45' W 095°06'0 0.0
2015-Mar-14 12:25N 29°45' W 095°06'0 0.0
2015-Mar-14 11:33N 29°45' W 095°06'1 0.9
2015-Mar-14 10:33N 29°45' W 095°06'0 0.1
2015-Mar-14 09:33N 29°45' W 095°06'0 0.0
2015-Mar-14 08:33N 29°45' W 095°06'0 0.0
2015-Mar-14 07:33N 29°45' W 095°06'0 0.0
2015-Mar-14 06:33N 29°45' W 095°06'0 0.0
2015-Mar-14 05:33N 29°45' W 095°06'0 0.0
2015-Mar-14 04:33N 29°45' W 095°06'0 0.0
2015-Mar-14 03:33N 29°45' W 095°06'0 0.0
2015-Mar-14 02:33N 29°45' W 095°06'0 0.0
2015-Mar-14 01:32N 29°45' W 095°06'0 0.0
2015-Mar-14 00:33N 29°45' W 095°06'0 0.0
2015-Mar-13 23:31N 29°45' W 095°06'0 0.0
2015-Mar-13 22:33N 29°45' W 095°06'0 0.0
2015-Mar-13 21:33N 29°45' W 095°06'0 0.0
2015-Mar-13 20:33N 29°45' W 095°06'0 0.0
2015-Mar-13 19:33N 29°45' W 095°06'0 0.0
2015-Mar-13 18:33N 29°45' W 095°06'0 0.0
2015-Mar-13 17:33N 29°45' W 095°06'0 0.0
2015-Mar-13 16:33N 29°45' W 095°06'0 0.0
2015-Mar-13 15:33N 29°45' W 095°06'0 0.1
2015-Mar-13 14:33N 29°46' W 095°06'0 0.0
2015-Mar-13 13:33N 29°46' W 095°06'0 0.0
2015-Mar-13 12:33N 29°46' W 095°06'0 0.0
2015-Mar-13 11:33N 29°46' W 095°06'0 0.0
2015-Mar-13 10:32N 29°46' W 095°06'0 0.1
2015-Mar-13 09:33N 29°45' W 095°06'0 0.1
2015-Mar-13 08:33N 29°46' W 095°06'0 0.0
2015-Mar-13 07:33N 29°46' W 095°06'0 0.0
2015-Mar-13 06:33N 29°46' W 095°06'0 0.0
2015-Mar-13 05:33N 29°46' W 095°06'0 0.0
2015-Mar-13 04:33N 29°46' W 095°06'0 0.0
2015-Mar-13 03:33N 29°46' W 095°06'0 0.0
2015-Mar-13 02:33N 29°46' W 095°06'0 0.0
2015-Mar-13 01:33N 29°46' W 095°06'0 0.0
2015-Mar-13 00:33N 29°46' W 095°06'0 0.0
2015-Mar-12 23:33N 29°46' W 095°06'0 0.0
2015-Mar-12 22:29N 29°46' W 095°06'0 0.0
2015-Mar-12 21:33N 29°46' W 095°06'0 0.0
2015-Mar-12 20:33N 29°46' W 095°06'0 0.0
2015-Mar-12 19:31N 29°46' W 095°06'0 0.0
2015-Mar-12 18:33N 29°46' W 095°06'0 0.0
2015-Mar-12 17:32N 29°46' W 095°06'0 0.0
2015-Mar-12 16:33N 29°46' W 095°06'0 0.3
2015-Mar-12 15:33N 29°46' W 095°06'0 0.3
2015-Mar-12 14:33N 29°46' W 095°06'0 0.0
2015-Mar-12 13:32N 29°46' W 095°06'0 0.0
2015-Mar-12 12:34N 29°46' W 095°06'0 0.1
2015-Mar-12 11:33N 29°45' W 095°06'0 0.0
2015-Mar-12 09:23N 29°45' W 095°06'0 0.4
2015-Mar-12 08:33N 29°46' W 095°06'0 0.0
2015-Mar-12 07:29N 29°46' W 095°06'0 0.0
2015-Mar-12 06:33N 29°46' W 095°06'0 0.0
2015-Mar-12 05:32N 29°46' W 095°06'1 0.7
2015-Mar-12 04:24N 29°46' W 095°06'0 0.3
2015-Mar-12 03:28N 29°46' W 095°07'1 1.0
2015-Mar-12 02:26N 29°45' W 095°06'0 0.0
2015-Mar-11 23:29N 29°45' W 095°06'1 0.2
2015-Mar-11 16:33N 29°46' W 095°05'1 1.1
2015-Mar-11 15:33N 29°46' W 095°06'0 0.0
2015-Mar-11 14:33N 29°46' W 095°06'0 0.0
2015-Mar-11 13:33N 29°46' W 095°06'0 0.0
2015-Mar-11 12:34N 29°46' W 095°06'0 0.3
2015-Mar-11 11:34N 29°45' W 095°06'0 0.0
2015-Mar-11 06:21N 29°45' W 095°06'0 0.0
2015-Mar-11 04:20N 29°45' W 095°06'0 0.0
2015-Mar-11 03:11N 29°45' W 095°06'0 0.1
2015-Mar-11 02:14N 29°45' W 095°06'0 0.0
2015-Mar-11 01:29N 29°45' W 095°06'0 0.0
2015-Mar-11 00:28N 29°45' W 095°06'0 0.0
2015-Mar-10 22:05N 29°45' W 095°06'0 0.0
2015-Mar-10 21:14N 29°45' W 095°06'  
Track history (hours):
 
Tides and Currents Weather Stations Pressure Air Temp Water Temp Dewpoint Dewpoint Depression Visibility Wind Speed Wind Dir Waves Ship Positions

Johnny James

Owner: CALLAIS & SONS INC, CUT OFF, LA. More information available from US FCC via Universal Licensing System and Coast Guard Vessel Documentation Center.

Last reported at 2015-Mar-20 20:29 UTC. Time now 2015-Mar-29 03:14 UTC.
Position N 29°32' W 094°54'.
Warning: this ship's position is 8 days out of date.

Length 20 m.

Type: Towing. MMSI: 367005220.

Date/timePositionNaut miles runAvg speedWind from/ knotsBaromVisibWave heightAir tempDewpointWater temp
2015-Mar-20 20:29N 29°32' W 094°54'5 4.9
2015-Mar-20 19:33N 29°36' W 094°57'6 5.6
2015-Mar-20 18:33N 29°41' W 094°59'4 4.5
2015-Mar-20 17:33N 29°44' W 095°03'3 3.5
2015-Mar-20 16:34N 29°47' W 095°04'0 0.0
2015-Mar-20 15:34N 29°47' W 095°04'0 0.0
2015-Mar-20 14:33N 29°47' W 095°04'0 0.0
2015-Mar-20 13:34N 29°47' W 095°04'0 0.0
2015-Mar-20 12:34N 29°47' W 095°04'0 0.0
2015-Mar-20 11:33N 29°47' W 095°04'0 0.0
2015-Mar-20 10:34N 29°47' W 095°04'0 0.0
2015-Mar-20 09:33N 29°47' W 095°04'0 0.0
2015-Mar-20 08:33N 29°47' W 095°04'0 0.0
2015-Mar-20 07:33N 29°47' W 095°04'0 0.0
2015-Mar-20 06:32N 29°47' W 095°04'0 0.0
2015-Mar-20 05:34N 29°47' W 095°04'0 0.0
2015-Mar-20 04:33N 29°47' W 095°04'0 0.0
2015-Mar-20 03:33N 29°47' W 095°04'0 0.0
2015-Mar-20 02:33N 29°47' W 095°04'0 0.1
2015-Mar-20 01:20N 29°47' W 095°04'0 0.0
2015-Mar-20 00:28N 29°47' W 095°04'0 0.0
2015-Mar-19 23:33N 29°47' W 095°04'2 1.4
2015-Mar-19 22:28N 29°46' W 095°05'2 2.7
2015-Mar-19 21:34N 29°44' W 095°03'0 0.0
2015-Mar-19 20:23N 29°44' W 095°03'0 0.0
2015-Mar-19 19:31N 29°44' W 095°03'0 0.0
2015-Mar-19 18:32N 29°44' W 095°03'0 0.0
2015-Mar-19 17:32N 29°44' W 095°03'0 0.0
2015-Mar-19 16:32N 29°44' W 095°03'0 0.0
2015-Mar-19 15:11N 29°44' W 095°03'0 0.0
2015-Mar-19 14:33N 29°44' W 095°03'0 0.0
2015-Mar-19 13:29N 29°44' W 095°03'0 0.0
2015-Mar-19 12:31N 29°44' W 095°03'0 0.0
2015-Mar-19 11:32N 29°44' W 095°03'0 0.0
2015-Mar-19 10:29N 29°44' W 095°03'0 0.0
2015-Mar-19 09:21N 29°44' W 095°03'0 0.0
2015-Mar-19 08:25N 29°44' W 095°03'0 0.0
2015-Mar-19 05:10N 29°44' W 095°03'0 0.0
2015-Mar-19 04:30N 29°44' W 095°03'0 0.0
2015-Mar-19 02:33N 29°44' W 095°03'0 0.0
2015-Mar-19 01:14N 29°44' W 095°03'0 0.1
2015-Mar-19 00:19N 29°44' W 095°03'0 0.0
2015-Mar-18 23:21N 29°44' W 095°03'0 0.0
2015-Mar-18 22:20N 29°44' W 095°03'0 0.0
2015-Mar-18 21:31N 29°44' W 095°03'0 0.0
2015-Mar-18 19:22N 29°44' W 095°03'0 0.0
2015-Mar-18 18:13N 29°44' W 095°03'0 0.0
2015-Mar-18 17:29N 29°44' W 095°03'0 0.0
2015-Mar-18 16:31N 29°44' W 095°03'0 0.0
2015-Mar-18 15:31N 29°44' W 095°03'0 0.0
2015-Mar-18 14:30N 29°44' W 095°03'0 0.0
2015-Mar-18 13:33N 29°44' W 095°03'0 0.0
2015-Mar-18 12:30N 29°44' W 095°03'0 0.0
2015-Mar-18 01:14N 29°44' W 095°03'0 0.0
2015-Mar-17 22:20N 29°44' W 095°03'0 0.4
2015-Mar-17 21:33N 29°44' W 095°03'2 2.4
2015-Mar-17 20:30N 29°46' W 095°05'0 0.4
2015-Mar-17 19:32N 29°47' W 095°05'0 0.0
2015-Mar-17 18:27N 29°47' W 095°05'0 0.0
2015-Mar-17 17:33N 29°47' W 095°05'0 0.0
2015-Mar-17 16:27N 29°47' W 095°05'0 0.5
2015-Mar-17 15:33N 29°46' W 095°05'4 4.0
2015-Mar-17 14:33N 29°44' W 095°09'4 3.9
2015-Mar-17 13:34N 29°43' W 095°13'1 0.1
2015-Mar-16 21:05N 29°43' W 095°14'0 0.4
2015-Mar-16 20:34N 29°43' W 095°14'0 0.0
2015-Mar-16 19:34N 29°43' W 095°14'0 0.0
2015-Mar-16 18:34N 29°43' W 095°14'0 0.0
2015-Mar-16 17:33N 29°43' W 095°14'0 0.0
2015-Mar-16 16:34N 29°43' W 095°14'4 3.9
2015-Mar-16 15:34N 29°45' W 095°10'4 3.9
2015-Mar-16 14:34N 29°45' W 095°06'1 1.4
2015-Mar-16 13:33N 29°46' W 095°07'1 0.1
2015-Mar-15 19:33N 29°45' W 095°06'1 0.3
2015-Mar-15 17:18N 29°45' W 095°06'0 0.0
2015-Mar-15 16:33N 29°45' W 095°06'0 0.0
2015-Mar-15 14:34N 29°45' W 095°06'0 0.0
2015-Mar-15 13:33N 29°45' W 095°06'0 0.0
2015-Mar-15 12:33N 29°45' W 095°06'0 0.0
2015-Mar-15 11:34N 29°45' W 095°06'0 0.0
2015-Mar-15 10:34N 29°45' W 095°06'0 0.0
2015-Mar-15 09:33N 29°45' W 095°06'0 0.0
2015-Mar-15 08:33N 29°45' W 095°06'0 0.0
2015-Mar-15 07:33N 29°45' W 095°06'0 0.0
2015-Mar-15 06:34N 29°45' W 095°06'0 0.0
2015-Mar-15 05:33N 29°45' W 095°06'0 0.0
2015-Mar-15 04:34N 29°45' W 095°06'0 0.0
2015-Mar-15 03:33N 29°45' W 095°06'0 0.0
2015-Mar-15 02:34N 29°45' W 095°06'0 0.0
2015-Mar-15 01:33N 29°45' W 095°06'0 0.0
2015-Mar-15 00:33N 29°45' W 095°06'0 0.0
2015-Mar-14 23:33N 29°45' W 095°06'0 0.0
2015-Mar-14 22:33N 29°45' W 095°06'0 0.0
2015-Mar-14 21:33N 29°45' W 095°06'0 0.0
2015-Mar-14 20:33N 29°45' W 095°06'0 0.0
2015-Mar-14 19:33N 29°45' W 095°06'0 0.0
2015-Mar-14 18:33N 29°45' W 095°06'0 0.0
2015-Mar-14 17:33N 29°45' W 095°06'0 0.0
2015-Mar-14 16:33N 29°45' W 095°06'0 0.0
2015-Mar-14 15:32N 29°45' W 095°06'0 0.0
2015-Mar-14 14:33N 29°45' W 095°06'0 0.0
2015-Mar-14 13:33N 29°45' W 095°06'0 0.0
2015-Mar-14 12:25N 29°45' W 095°06'0 0.0
2015-Mar-14 11:33N 29°45' W 095°06'1 0.9
2015-Mar-14 10:33N 29°45' W 095°06'0 0.1
2015-Mar-14 09:33N 29°45' W 095°06'0 0.0
2015-Mar-14 08:33N 29°45' W 095°06'0 0.0
2015-Mar-14 07:33N 29°45' W 095°06'0 0.0
2015-Mar-14 06:33N 29°45' W 095°06'0 0.0
2015-Mar-14 05:33N 29°45' W 095°06'0 0.0
2015-Mar-14 04:33N 29°45' W 095°06'0 0.0
2015-Mar-14 03:33N 29°45' W 095°06'0 0.0
2015-Mar-14 02:33N 29°45' W 095°06'0 0.0
2015-Mar-14 01:32N 29°45' W 095°06'0 0.0
2015-Mar-14 00:33N 29°45' W 095°06'0 0.0
2015-Mar-13 23:31N 29°45' W 095°06'0 0.0
2015-Mar-13 22:33N 29°45' W 095°06'0 0.0
2015-Mar-13 21:33N 29°45' W 095°06'0 0.0
2015-Mar-13 20:33N 29°45' W 095°06'0 0.0
2015-Mar-13 19:33N 29°45' W 095°06'0 0.0
2015-Mar-13 18:33N 29°45' W 095°06'0 0.0
2015-Mar-13 17:33N 29°45' W 095°06'0 0.0
2015-Mar-13 16:33N 29°45' W 095°06'0 0.0
2015-Mar-13 15:33N 29°45' W 095°06'0 0.1
2015-Mar-13 14:33N 29°46' W 095°06'0 0.0
2015-Mar-13 13:33N 29°46' W 095°06'0 0.0
2015-Mar-13 12:33N 29°46' W 095°06'0 0.0
2015-Mar-13 11:33N 29°46' W 095°06'0 0.0
2015-Mar-13 10:32N 29°46' W 095°06'0 0.1
2015-Mar-13 09:33N 29°45' W 095°06'0 0.1
2015-Mar-13 08:33N 29°46' W 095°06'0 0.0
2015-Mar-13 07:33N 29°46' W 095°06'0 0.0
2015-Mar-13 06:33N 29°46' W 095°06'0 0.0
2015-Mar-13 05:33N 29°46' W 095°06'0 0.0
2015-Mar-13 04:33N 29°46' W 095°06'0 0.0
2015-Mar-13 03:33N 29°46' W 095°06'0 0.0
2015-Mar-13 02:33N 29°46' W 095°06'0 0.0
2015-Mar-13 01:33N 29°46' W 095°06'0 0.0
2015-Mar-13 00:33N 29°46' W 095°06'0 0.0
2015-Mar-12 23:33N 29°46' W 095°06'0 0.0
2015-Mar-12 22:29N 29°46' W 095°06'0 0.0
2015-Mar-12 21:33N 29°46' W 095°06'0 0.0
2015-Mar-12 20:33N 29°46' W 095°06'0 0.0
2015-Mar-12 19:31N 29°46' W 095°06'0 0.0
2015-Mar-12 18:33N 29°46' W 095°06'0 0.0
2015-Mar-12 17:32N 29°46' W 095°06'0 0.0
2015-Mar-12 16:33N 29°46' W 095°06'0 0.3
2015-Mar-12 15:33N 29°46' W 095°06'0 0.3
2015-Mar-12 14:33N 29°46' W 095°06'0 0.0
2015-Mar-12 13:32N 29°46' W 095°06'0 0.0
2015-Mar-12 12:34N 29°46' W 095°06'0 0.1
2015-Mar-12 11:33N 29°45' W 095°06'0 0.0
2015-Mar-12 09:23N 29°45' W 095°06'0 0.4
2015-Mar-12 08:33N 29°46' W 095°06'0 0.0
2015-Mar-12 07:29N 29°46' W 095°06'0 0.0
2015-Mar-12 06:33N 29°46' W 095°06'0 0.0
2015-Mar-12 05:32N 29°46' W 095°06'1 0.7
2015-Mar-12 04:24N 29°46' W 095°06'0 0.3
2015-Mar-12 03:28N 29°46' W 095°07'1 1.0
2015-Mar-12 02:26N 29°45' W 095°06'0 0.0
2015-Mar-11 23:29N 29°45' W 095°06'1 0.2
2015-Mar-11 16:33N 29°46' W 095°05'1 1.1
2015-Mar-11 15:33N 29°46' W 095°06'0 0.0
2015-Mar-11 14:33N 29°46' W 095°06'0 0.0
2015-Mar-11 13:33N 29°46' W 095°06'0 0.0
2015-Mar-11 12:34N 29°46' W 095°06'0 0.3
2015-Mar-11 11:34N 29°45' W 095°06'0 0.0
2015-Mar-11 06:21N 29°45' W 095°06'0 0.0
2015-Mar-11 04:20N 29°45' W 095°06'0 0.0
2015-Mar-11 03:11N 29°45' W 095°06'0 0.1
2015-Mar-11 02:14N 29°45' W 095°06'0 0.0
2015-Mar-11 01:29N 29°45' W 095°06'0 0.0
2015-Mar-11 00:28N 29°45' W 095°06'0 0.0
2015-Mar-10 22:05N 29°45' W 095°06'0 0.0
2015-Mar-10 21:14N 29°45' W 095°06'  

Dump ship's entire track history